sensor_id;sensor_type;location;lat;lon;timestamp;pressure;altitude;pressure_sealevel;temperature;humidity
36502;BME280;25393;46.108;3.390;2023-04-04T00:00:23;98226.53;;;5.01;86.80
36502;BME280;25393;46.108;3.390;2023-04-04T00:02:50;98202.97;;;4.90;85.39
36502;BME280;25393;46.108;3.390;2023-04-04T00:05:17;98219.28;;;4.93;85.26
36502;BME280;25393;46.108;3.390;2023-04-04T00:07:46;98205.84;;;4.87;85.43
36502;BME280;25393;46.108;3.390;2023-04-04T00:10:13;98200.41;;;4.79;85.23
36502;BME280;25393;46.108;3.390;2023-04-04T00:12:41;98211.75;;;4.79;84.13
36502;BME280;25393;46.108;3.390;2023-04-04T00:15:08;98222.00;;;4.62;85.21
36502;BME280;25393;46.108;3.390;2023-04-04T00:17:34;98212.63;;;4.69;84.60
36502;BME280;25393;46.108;3.390;2023-04-04T00:20:01;98207.34;;;4.59;84.28
36502;BME280;25393;46.108;3.390;2023-04-04T00:22:29;98207.53;;;4.67;84.19
36502;BME280;25393;46.108;3.390;2023-04-04T00:24:56;98214.63;;;4.56;85.02
36502;BME280;25393;46.108;3.390;2023-04-04T00:27:24;98210.97;;;4.47;84.81
36502;BME280;25393;46.108;3.390;2023-04-04T00:29:51;98215.78;;;4.42;84.39
36502;BME280;25393;46.108;3.390;2023-04-04T00:32:17;98214.03;;;4.31;83.98
36502;BME280;25393;46.108;3.390;2023-04-04T00:34:44;98211.22;;;4.12;85.07
36502;BME280;25393;46.108;3.390;2023-04-04T00:37:10;98203.75;;;4.08;85.25
36502;BME280;25393;46.108;3.390;2023-04-04T00:39:38;98206.63;;;4.05;84.90
36502;BME280;25393;46.108;3.390;2023-04-04T00:42:04;98210.44;;;4.00;84.40
36502;BME280;25393;46.108;3.390;2023-04-04T00:44:32;98211.50;;;3.98;83.70
36502;BME280;25393;46.108;3.390;2023-04-04T00:47:01;98212.88;;;3.81;83.72
36502;BME280;25393;46.108;3.390;2023-04-04T00:49:29;98210.97;;;3.83;84.42
36502;BME280;25393;46.108;3.390;2023-04-04T00:51:58;98208.13;;;3.75;83.86
36502;BME280;25393;46.108;3.390;2023-04-04T00:54:26;98196.22;;;3.71;84.27
36502;BME280;25393;46.108;3.390;2023-04-04T00:56:52;98196.22;;;3.71;83.20
36502;BME280;25393;46.108;3.390;2023-04-04T00:59:27;98211.69;;;3.63;84.26
36502;BME280;25393;46.108;3.390;2023-04-04T01:01:54;98205.16;;;3.58;84.60
36502;BME280;25393;46.108;3.390;2023-04-04T01:04:26;98212.09;;;3.47;85.00
36502;BME280;25393;46.108;3.390;2023-04-04T01:06:58;98205.06;;;3.37;85.57
36502;BME280;25393;46.108;3.390;2023-04-04T01:09:26;98203.53;;;3.23;86.68
36502;BME280;25393;46.108;3.390;2023-04-04T01:11:53;98190.88;;;3.17;86.79
36502;BME280;25393;46.108;3.390;2023-04-04T01:14:22;98189.59;;;3.12;86.94
36502;BME280;25393;46.108;3.390;2023-04-04T01:16:49;98196.97;;;3.18;86.63
36502;BME280;25393;46.108;3.390;2023-04-04T01:19:39;98196.72;;;2.98;86.11
36502;BME280;25393;46.108;3.390;2023-04-04T01:22:07;98191.75;;;2.95;86.52
36502;BME280;25393;46.108;3.390;2023-04-04T01:24:34;98187.53;;;2.93;86.28
36502;BME280;25393;46.108;3.390;2023-04-04T01:27:01;98186.34;;;2.86;86.43
36502;BME280;25393;46.108;3.390;2023-04-04T01:29:28;98173.13;;;2.76;86.49
36502;BME280;25393;46.108;3.390;2023-04-04T01:32:07;98175.41;;;2.81;85.52
36502;BME280;25393;46.108;3.390;2023-04-04T01:34:55;98186.59;;;2.83;85.29
36502;BME280;25393;46.108;3.390;2023-04-04T01:37:30;98165.75;;;2.70;85.48
36502;BME280;25393;46.108;3.390;2023-04-04T01:40:03;98180.88;;;2.78;85.08
36502;BME280;25393;46.108;3.390;2023-04-04T01:42:34;98169.41;;;2.68;85.12
36502;BME280;25393;46.108;3.390;2023-04-04T01:45:01;98168.38;;;2.70;85.34
36502;BME280;25393;46.108;3.390;2023-04-04T01:47:37;98172.66;;;2.60;85.20
36502;BME280;25393;46.108;3.390;2023-04-04T01:50:05;98167.78;;;2.67;85.23
36502;BME280;25393;46.108;3.390;2023-04-04T01:52:32;98161.94;;;2.63;84.36
36502;BME280;25393;46.108;3.390;2023-04-04T01:55:00;98173.69;;;2.58;85.07
36502;BME280;25393;46.108;3.390;2023-04-04T01:57:27;98179.06;;;2.56;84.63
36502;BME280;25393;46.108;3.390;2023-04-04T01:59:57;98163.56;;;2.42;85.13
36502;BME280;25393;46.108;3.390;2023-04-04T02:02:24;98148.41;;;2.23;85.80
36502;BME280;25393;46.108;3.390;2023-04-04T02:04:51;98163.81;;;2.15;85.44
36502;BME280;25393;46.108;3.390;2023-04-04T02:07:18;98168.84;;;2.29;85.49
36502;BME280;25393;46.108;3.390;2023-04-04T02:09:44;98153.91;;;2.31;84.89
36502;BME280;25393;46.108;3.390;2023-04-04T02:12:11;98166.13;;;2.31;85.21
36502;BME280;25393;46.108;3.390;2023-04-04T02:14:38;98155.63;;;2.20;85.04
36502;BME280;25393;46.108;3.390;2023-04-04T02:17:06;98164.56;;;2.17;84.63
36502;BME280;25393;46.108;3.390;2023-04-04T02:19:32;98174.09;;;2.29;84.42
36502;BME280;25393;46.108;3.390;2023-04-04T02:22:02;98172.16;;;2.20;84.87
36502;BME280;25393;46.108;3.390;2023-04-04T02:24:28;98175.72;;;2.19;83.95
36502;BME280;25393;46.108;3.390;2023-04-04T02:26:58;98166.56;;;2.14;84.37
36502;BME280;25393;46.108;3.390;2023-04-04T02:29:27;98166.34;;;2.17;84.61
36502;BME280;25393;46.108;3.390;2023-04-04T02:31:53;98169.03;;;2.15;84.18
36502;BME280;25393;46.108;3.390;2023-04-04T02:34:20;98169.28;;;2.12;85.00
36502;BME280;25393;46.108;3.390;2023-04-04T02:36:46;98165.50;;;2.16;84.80
36502;BME280;25393;46.108;3.390;2023-04-04T02:39:13;98156.34;;;2.11;84.63
36502;BME280;25393;46.108;3.390;2023-04-04T02:41:39;98161.63;;;1.98;84.57
36502;BME280;25393;46.108;3.390;2023-04-04T02:44:06;98174.03;;;2.07;85.21
36502;BME280;25393;46.108;3.390;2023-04-04T02:46:35;98170.72;;;2.16;84.81
36502;BME280;25393;46.108;3.390;2023-04-04T02:49:04;98158.16;;;1.97;84.59
36502;BME280;25393;46.108;3.390;2023-04-04T02:51:34;98159.75;;;2.00;84.66
36502;BME280;25393;46.108;3.390;2023-04-04T02:54:00;98170.34;;;2.10;84.50
36502;BME280;25393;46.108;3.390;2023-04-04T02:56:31;98154.50;;;2.00;84.99
36502;BME280;25393;46.108;3.390;2023-04-04T02:58:59;98171.28;;;2.09;85.16
36502;BME280;25393;46.108;3.390;2023-04-04T03:01:25;98181.69;;;1.97;85.23
36502;BME280;25393;46.108;3.390;2023-04-04T03:03:52;98169.53;;;1.85;85.72
36502;BME280;25393;46.108;3.390;2023-04-04T03:06:19;98165.78;;;1.77;85.29
36502;BME280;25393;46.108;3.390;2023-04-04T03:08:45;98166.34;;;1.69;85.68
36502;BME280;25393;46.108;3.390;2023-04-04T03:11:16;98163.94;;;1.66;86.26
36502;BME280;25393;46.108;3.390;2023-04-04T03:13:43;98165.09;;;1.75;86.33
36502;BME280;25393;46.108;3.390;2023-04-04T03:16:09;98165.91;;;1.75;86.73
36502;BME280;25393;46.108;3.390;2023-04-04T03:18:36;98163.19;;;1.77;86.90
36502;BME280;25393;46.108;3.390;2023-04-04T03:21:06;98170.63;;;1.70;86.27
36502;BME280;25393;46.108;3.390;2023-04-04T03:23:35;98182.22;;;1.79;86.78
36502;BME280;25393;46.108;3.390;2023-04-04T03:26:02;98172.97;;;1.86;86.74
36502;BME280;25393;46.108;3.390;2023-04-04T03:28:31;98174.59;;;1.76;86.77
36502;BME280;25393;46.108;3.390;2023-04-04T03:31:04;98164.69;;;1.68;86.83
36502;BME280;25393;46.108;3.390;2023-04-04T03:33:35;98168.16;;;1.69;87.44
36502;BME280;25393;46.108;3.390;2023-04-04T03:36:10;98174.47;;;1.54;88.53
36502;BME280;25393;46.108;3.390;2023-04-04T03:38:37;98173.53;;;1.55;88.66
36502;BME280;25393;46.108;3.390;2023-04-04T03:41:05;98183.56;;;1.48;89.06
36502;BME280;25393;46.108;3.390;2023-04-04T03:43:33;98176.84;;;1.57;89.17
36502;BME280;25393;46.108;3.390;2023-04-04T03:46:06;98181.38;;;1.55;88.68
36502;BME280;25393;46.108;3.390;2023-04-04T03:48:33;98174.59;;;1.39;90.08
36502;BME280;25393;46.108;3.390;2023-04-04T03:51:03;98176.16;;;1.42;89.45
36502;BME280;25393;46.108;3.390;2023-04-04T03:53:32;98183.00;;;1.56;88.96
36502;BME280;25393;46.108;3.390;2023-04-04T03:56:02;98154.47;;;1.29;89.15
36502;BME280;25393;46.108;3.390;2023-04-04T03:58:28;98186.91;;;1.50;89.74
36502;BME280;25393;46.108;3.390;2023-04-04T04:00:56;98173.44;;;1.43;89.18
36502;BME280;25393;46.108;3.390;2023-04-04T04:03:22;98184.22;;;1.39;89.66
36502;BME280;25393;46.108;3.390;2023-04-04T04:05:49;98189.31;;;1.53;89.92
36502;BME280;25393;46.108;3.390;2023-04-04T04:08:15;98182.53;;;1.50;88.74
36502;BME280;25393;46.108;3.390;2023-04-04T04:10:42;98171.78;;;1.42;89.17
36502;BME280;25393;46.108;3.390;2023-04-04T04:13:08;98171.78;;;1.42;89.51
36502;BME280;25393;46.108;3.390;2023-04-04T04:15:35;98167.72;;;1.38;89.46
36502;BME280;25393;46.108;3.390;2023-04-04T04:18:02;98178.59;;;1.32;89.55
36502;BME280;25393;46.108;3.390;2023-04-04T04:20:29;98184.53;;;1.34;90.06
36502;BME280;25393;46.108;3.390;2023-04-04T04:22:55;98191.53;;;1.34;89.69
36502;BME280;25393;46.108;3.390;2023-04-04T04:25:22;98191.66;;;1.32;90.23
36502;BME280;25393;46.108;3.390;2023-04-04T04:27:49;98183.06;;;1.30;89.87
36502;BME280;25393;46.108;3.390;2023-04-04T04:30:16;98198.13;;;1.27;90.38
36502;BME280;25393;46.108;3.390;2023-04-04T04:32:42;98192.00;;;1.15;90.53
36502;BME280;25393;46.108;3.390;2023-04-04T04:35:09;98169.88;;;1.08;90.47
36502;BME280;25393;46.108;3.390;2023-04-04T04:37:39;98176.66;;;1.11;90.78
36502;BME280;25393;46.108;3.390;2023-04-04T04:40:07;98201.16;;;1.21;90.74
36502;BME280;25393;46.108;3.390;2023-04-04T04:42:34;98192.94;;;1.14;90.94
36502;BME280;25393;46.108;3.390;2023-04-04T04:45:03;98200.41;;;1.31;90.40
36502;BME280;25393;46.108;3.390;2023-04-04T04:47:32;98191.03;;;1.16;89.58
36502;BME280;25393;46.108;3.390;2023-04-04T04:49:59;98200.56;;;1.17;90.68
36502;BME280;25393;46.108;3.390;2023-04-04T04:52:27;98199.09;;;1.13;90.12
36502;BME280;25393;46.108;3.390;2023-04-04T04:54:54;98206.91;;;1.13;90.63
36502;BME280;25393;46.108;3.390;2023-04-04T04:57:21;98202.56;;;1.01;91.21
36502;BME280;25393;46.108;3.390;2023-04-04T04:59:48;98192.94;;;0.89;91.05
36502;BME280;25393;46.108;3.390;2023-04-04T05:02:14;98206.00;;;0.89;91.12
36502;BME280;25393;46.108;3.390;2023-04-04T05:04:41;98207.16;;;0.85;91.77
36502;BME280;25393;46.108;3.390;2023-04-04T05:07:10;98223.25;;;0.91;91.59
36502;BME280;25393;46.108;3.390;2023-04-04T05:09:37;98214.25;;;0.83;91.90
36502;BME280;25393;46.108;3.390;2023-04-04T05:12:04;98209.97;;;0.82;91.88
36502;BME280;25393;46.108;3.390;2023-04-04T05:14:31;98171.78;;;0.56;91.91
36502;BME280;25393;46.108;3.390;2023-04-04T05:16:57;98217.16;;;0.78;91.77
36502;BME280;25393;46.108;3.390;2023-04-04T05:19:24;98211.53;;;0.72;91.51
36502;BME280;25393;46.108;3.390;2023-04-04T05:21:51;98209.75;;;0.72;91.74
36502;BME280;25393;46.108;3.390;2023-04-04T05:24:17;98208.94;;;0.59;92.44
36502;BME280;25393;46.108;3.390;2023-04-04T05:26:44;98220.91;;;0.74;91.99
36502;BME280;25393;46.108;3.390;2023-04-04T05:29:12;98208.22;;;0.70;92.13
36502;BME280;25393;46.108;3.390;2023-04-04T05:31:38;98208.84;;;0.73;92.74
36502;BME280;25393;46.108;3.390;2023-04-04T05:34:08;98214.03;;;0.86;91.64
36502;BME280;25393;46.108;3.390;2023-04-04T05:36:35;98211.84;;;0.80;91.12
36502;BME280;25393;46.108;3.390;2023-04-04T05:39:04;98200.06;;;0.62;92.19
36502;BME280;25393;46.108;3.390;2023-04-04T05:41:33;98217.06;;;0.67;91.99
36502;BME280;25393;46.108;3.390;2023-04-04T05:44:00;98215.41;;;0.79;92.36
36502;BME280;25393;46.108;3.390;2023-04-04T05:46:26;98222.72;;;0.86;91.50
36502;BME280;25393;46.108;3.390;2023-04-04T05:48:53;98226.47;;;0.82;90.61
36502;BME280;25393;46.108;3.390;2023-04-04T05:51:20;98231.81;;;0.81;91.34
36502;BME280;25393;46.108;3.390;2023-04-04T05:53:46;98217.50;;;0.74;90.77
36502;BME280;25393;46.108;3.390;2023-04-04T05:56:14;98230.13;;;0.80;91.14
36502;BME280;25393;46.108;3.390;2023-04-04T05:58:40;98234.41;;;0.93;90.67
36502;BME280;25393;46.108;3.390;2023-04-04T06:01:08;98234.31;;;0.95;90.86
36502;BME280;25393;46.108;3.390;2023-04-04T06:03:34;98252.16;;;1.01;90.06
36502;BME280;25393;46.108;3.390;2023-04-04T06:06:04;98242.16;;;0.95;89.75
36502;BME280;25393;46.108;3.390;2023-04-04T06:08:33;98246.31;;;0.97;89.09
36502;BME280;25393;46.108;3.390;2023-04-04T06:11:18;98234.63;;;0.90;89.67
36502;BME280;25393;46.108;3.390;2023-04-04T06:13:45;98255.41;;;1.05;90.02
36502;BME280;25393;46.108;3.390;2023-04-04T06:16:11;98263.53;;;1.13;89.76
36502;BME280;25393;46.108;3.390;2023-04-04T06:18:38;98265.81;;;1.17;89.17
36502;BME280;25393;46.108;3.390;2023-04-04T06:21:04;98264.47;;;1.24;88.79
36502;BME280;25393;46.108;3.390;2023-04-04T06:23:33;98248.50;;;1.04;88.45
36502;BME280;25393;46.108;3.390;2023-04-04T06:25:59;98257.16;;;1.04;88.84
36502;BME280;25393;46.108;3.390;2023-04-04T06:28:26;98251.66;;;1.09;88.68
36502;BME280;25393;46.108;3.390;2023-04-04T06:30:52;98266.88;;;1.15;89.22
36502;BME280;25393;46.108;3.390;2023-04-04T06:33:19;98276.69;;;1.24;88.61
36502;BME280;25393;46.108;3.390;2023-04-04T06:35:45;98269.38;;;1.29;87.34
36502;BME280;25393;46.108;3.390;2023-04-04T06:38:12;98270.31;;;1.40;86.87
36502;BME280;25393;46.108;3.390;2023-04-04T06:40:38;98274.81;;;1.51;86.73
36502;BME280;25393;46.108;3.390;2023-04-04T06:43:08;98251.28;;;1.51;85.38
36502;BME280;25393;46.108;3.390;2023-04-04T06:45:35;98280.69;;;1.78;85.34
36502;BME280;25393;46.108;3.390;2023-04-04T06:48:02;98261.09;;;1.60;83.80
36502;BME280;25393;46.108;3.390;2023-04-04T06:50:29;98284.63;;;1.84;84.03
36502;BME280;25393;46.108;3.390;2023-04-04T06:53:01;98280.44;;;1.94;83.90
36502;BME280;25393;46.108;3.390;2023-04-04T06:55:28;98281.47;;;2.04;83.28
36502;BME280;25393;46.108;3.390;2023-04-04T06:57:55;98277.34;;;2.13;82.78
36502;BME280;25393;46.108;3.390;2023-04-04T07:00:22;98270.88;;;2.29;82.72
36502;BME280;25393;46.108;3.390;2023-04-04T07:02:48;98258.69;;;2.41;81.04
36502;BME280;25393;46.108;3.390;2023-04-04T07:05:15;98276.44;;;2.48;78.98
36502;BME280;25393;46.108;3.390;2023-04-04T07:07:44;98263.50;;;2.58;79.63
36502;BME280;25393;46.108;3.390;2023-04-04T07:10:12;98266.19;;;2.80;78.50
36502;BME280;25393;46.108;3.390;2023-04-04T07:12:38;98269.91;;;3.00;77.40
36502;BME280;25393;46.108;3.390;2023-04-04T07:15:08;98274.50;;;3.31;77.01
36502;BME280;25393;46.108;3.390;2023-04-04T07:17:38;98274.50;;;3.53;75.39
36502;BME280;25393;46.108;3.390;2023-04-04T07:20:07;98253.53;;;3.53;74.47
36502;BME280;25393;46.108;3.390;2023-04-04T07:22:37;98271.03;;;3.75;74.13
36502;BME280;25393;46.108;3.390;2023-04-04T07:25:05;98277.31;;;3.95;74.10
36502;BME280;25393;46.108;3.390;2023-04-04T07:27:32;98273.22;;;4.24;73.76
36502;BME280;25393;46.108;3.390;2023-04-04T07:29:59;98277.63;;;4.56;72.69
36502;BME280;25393;46.108;3.390;2023-04-04T07:32:25;98269.09;;;4.74;71.21
36502;BME280;25393;46.108;3.390;2023-04-04T07:34:52;98253.19;;;4.76;68.76
36502;BME280;25393;46.108;3.390;2023-04-04T07:37:18;98281.97;;;5.19;69.06
36502;BME280;25393;46.108;3.390;2023-04-04T07:39:45;98279.00;;;5.33;66.78
36502;BME280;25393;46.108;3.390;2023-04-04T07:42:12;98275.16;;;5.37;67.10
36502;BME280;25393;46.108;3.390;2023-04-04T07:44:39;98283.25;;;5.54;65.02
36502;BME280;25393;46.108;3.390;2023-04-04T07:47:09;98280.00;;;5.72;64.15
36502;BME280;25393;46.108;3.390;2023-04-04T07:49:37;98278.44;;;5.90;64.33
36502;BME280;25393;46.108;3.390;2023-04-04T07:52:03;98276.56;;;6.01;63.51
36502;BME280;25393;46.108;3.390;2023-04-04T07:54:34;98282.00;;;6.38;65.53
36502;BME280;25393;46.108;3.390;2023-04-04T07:57:03;98274.41;;;6.74;63.46
36502;BME280;25393;46.108;3.390;2023-04-04T07:59:34;98263.16;;;6.62;60.49
36502;BME280;25393;46.108;3.390;2023-04-04T08:02:03;98258.88;;;6.51;59.54
36502;BME280;25393;46.108;3.390;2023-04-04T08:04:29;98256.94;;;6.63;60.28
36502;BME280;25393;46.108;3.390;2023-04-04T08:06:56;98262.31;;;6.90;60.75
36502;BME280;25393;46.108;3.390;2023-04-04T08:09:22;98257.53;;;7.32;60.33
36502;BME280;25393;46.108;3.390;2023-04-04T08:11:50;98260.84;;;7.71;57.87
36502;BME280;25393;46.108;3.390;2023-04-04T08:14:17;98263.66;;;7.97;55.34
36502;BME280;25393;46.108;3.390;2023-04-04T08:16:43;98260.09;;;7.88;57.02
36502;BME280;25393;46.108;3.390;2023-04-04T08:19:09;98263.84;;;7.86;57.23
36502;BME280;25393;46.108;3.390;2023-04-04T08:21:37;98268.03;;;8.06;56.00
36502;BME280;25393;46.108;3.390;2023-04-04T08:24:04;98263.75;;;8.05;54.29
36502;BME280;25393;46.108;3.390;2023-04-04T08:26:30;98270.78;;;8.41;56.34
36502;BME280;25393;46.108;3.390;2023-04-04T08:28:57;98256.69;;;8.68;54.12
36502;BME280;25393;46.108;3.390;2023-04-04T08:31:23;98256.69;;;8.86;53.01
36502;BME280;25393;46.108;3.390;2023-04-04T08:33:50;98250.28;;;9.14;52.17
36502;BME280;25393;46.108;3.390;2023-04-04T08:36:17;98247.53;;;9.49;50.61
36502;BME280;25393;46.108;3.390;2023-04-04T08:38:44;98253.00;;;9.90;50.58
36502;BME280;25393;46.108;3.390;2023-04-04T08:41:11;98251.09;;;10.08;49.67
36502;BME280;25393;46.108;3.390;2023-04-04T08:43:39;98241.75;;;10.38;48.03
36502;BME280;25393;46.108;3.390;2023-04-04T08:46:10;98241.63;;;10.56;49.41
36502;BME280;25393;46.108;3.390;2023-04-04T08:48:38;98228.06;;;10.99;48.75
36502;BME280;25393;46.108;3.390;2023-04-04T08:51:09;98233.91;;;11.66;47.01
36502;BME280;25393;46.108;3.390;2023-04-04T08:53:40;98233.72;;;11.83;45.80
36502;BME280;25393;46.108;3.390;2023-04-04T08:56:09;98220.56;;;11.90;48.01
36502;BME280;25393;46.108;3.390;2023-04-04T08:58:39;98231.47;;;11.48;44.63
36502;BME280;25393;46.108;3.390;2023-04-04T09:01:09;98243.47;;;11.99;44.23
36502;BME280;25393;46.108;3.390;2023-04-04T09:03:40;98238.19;;;12.22;44.98
36502;BME280;25393;46.108;3.390;2023-04-04T09:06:08;98251.06;;;12.64;44.08
36502;BME280;25393;46.108;3.390;2023-04-04T09:08:38;98230.03;;;12.77;42.63
36502;BME280;25393;46.108;3.390;2023-04-04T09:11:06;98246.97;;;12.30;42.42
36502;BME280;25393;46.108;3.390;2023-04-04T09:13:33;98239.72;;;12.92;43.49
36502;BME280;25393;46.108;3.390;2023-04-04T09:16:07;98221.13;;;13.44;42.62
36502;BME280;25393;46.108;3.390;2023-04-04T09:18:33;98235.75;;;13.92;41.78
36502;BME280;25393;46.108;3.390;2023-04-04T09:21:10;98238.22;;;13.94;37.66
36502;BME280;25393;46.108;3.390;2023-04-04T09:23:37;98249.88;;;14.08;38.72
36502;BME280;25393;46.108;3.390;2023-04-04T09:26:05;98259.78;;;13.55;39.36
36502;BME280;25393;46.108;3.390;2023-04-04T09:28:38;98251.44;;;13.43;40.04
36502;BME280;25393;46.108;3.390;2023-04-04T09:31:07;98251.91;;;13.91;39.17
36502;BME280;25393;46.108;3.390;2023-04-04T09:33:35;98236.38;;;14.09;39.63
36502;BME280;25393;46.108;3.390;2023-04-04T09:36:12;98253.63;;;13.55;39.30
36502;BME280;25393;46.108;3.390;2023-04-04T09:38:40;98253.19;;;14.39;39.04
36502;BME280;25393;46.108;3.390;2023-04-04T09:41:14;98235.13;;;14.26;38.34
36502;BME280;25393;46.108;3.390;2023-04-04T09:43:44;98252.25;;;14.89;37.05
36502;BME280;25393;46.108;3.390;2023-04-04T09:46:11;98249.19;;;15.13;37.73
36502;BME280;25393;46.108;3.390;2023-04-04T09:48:38;98228.13;;;15.25;38.48
36502;BME280;25393;46.108;3.390;2023-04-04T09:51:10;98239.97;;;15.65;37.58
36502;BME280;25393;46.108;3.390;2023-04-04T09:53:38;98245.06;;;15.38;35.72
36502;BME280;25393;46.108;3.390;2023-04-04T09:56:08;98249.53;;;15.53;38.85
36502;BME280;25393;46.108;3.390;2023-04-04T09:58:37;98228.50;;;15.77;37.54
36502;BME280;25393;46.108;3.390;2023-04-04T10:01:17;98230.38;;;15.83;37.94
36502;BME280;25393;46.108;3.390;2023-04-04T10:03:53;98243.75;;;16.24;38.01
36502;BME280;25393;46.108;3.390;2023-04-04T10:06:21;98252.59;;;16.79;36.15
36502;BME280;25393;46.108;3.390;2023-04-04T10:08:48;98256.97;;;17.06;36.03
36502;BME280;25393;46.108;3.390;2023-04-04T10:11:27;98258.41;;;17.09;34.21
36502;BME280;25393;46.108;3.390;2023-04-04T10:13:56;98233.81;;;16.59;36.08
36502;BME280;25393;46.108;3.390;2023-04-04T10:16:24;98249.91;;;16.18;35.41
36502;BME280;25393;46.108;3.390;2023-04-04T10:18:52;98247.84;;;16.14;36.68
36502;BME280;25393;46.108;3.390;2023-04-04T10:21:18;98254.94;;;16.47;35.65
36502;BME280;25393;46.108;3.390;2023-04-04T10:23:47;98238.19;;;16.19;35.41
36502;BME280;25393;46.108;3.390;2023-04-04T10:26:14;98250.28;;;16.56;36.33
36502;BME280;25393;46.108;3.390;2023-04-04T10:28:41;98250.56;;;17.14;35.64
36502;BME280;25393;46.108;3.390;2023-04-04T10:31:24;98222.94;;;16.67;36.39
36502;BME280;25393;46.108;3.390;2023-04-04T10:36:29;98250.78;;;16.25;35.13
36502;BME280;25393;46.108;3.390;2023-04-04T10:39:03;98259.97;;;15.75;36.49
36502;BME280;25393;46.108;3.390;2023-04-04T10:41:39;98256.66;;;16.08;35.94
36502;BME280;25393;46.108;3.390;2023-04-04T10:44:19;98225.75;;;16.46;36.09
36502;BME280;25393;46.108;3.390;2023-04-04T10:46:52;98252.41;;;16.87;35.09
36502;BME280;25393;46.108;3.390;2023-04-04T10:49:20;98240.31;;;17.24;34.33
36502;BME280;25393;46.108;3.390;2023-04-04T10:51:50;98232.69;;;17.34;34.75
36502;BME280;25393;46.108;3.390;2023-04-04T10:54:39;98224.00;;;17.65;33.89
36502;BME280;25393;46.108;3.390;2023-04-04T10:57:11;98231.34;;;17.95;34.74
36502;BME280;25393;46.108;3.390;2023-04-04T11:02:53;98228.94;;;18.76;32.87
36502;BME280;25393;46.108;3.390;2023-04-04T11:05:25;98225.88;;;18.73;31.71
36502;BME280;25393;46.108;3.390;2023-04-04T11:07:57;98226.00;;;18.53;33.15
36502;BME280;25393;46.108;3.390;2023-04-04T11:10:29;98222.56;;;18.26;33.18
36502;BME280;25393;46.108;3.390;2023-04-04T11:12:57;98210.09;;;18.52;33.99
36502;BME280;25393;46.108;3.390;2023-04-04T11:16:05;98201.66;;;18.79;33.64
36502;BME280;25393;46.108;3.390;2023-04-04T11:21:15;98223.09;;;18.86;31.35
36502;BME280;25393;46.108;3.390;2023-04-04T11:28:57;98206.34;;;18.59;32.98
36502;BME280;25393;46.108;3.390;2023-04-04T11:31:26;98228.25;;;18.56;32.63
36502;BME280;25393;46.108;3.390;2023-04-04T11:34:11;98221.03;;;18.50;33.02
36502;BME280;25393;46.108;3.390;2023-04-04T11:39:26;98214.53;;;19.02;32.48
36502;BME280;25393;46.108;3.390;2023-04-04T11:42:01;98213.78;;;19.44;30.87
36502;BME280;25393;46.108;3.390;2023-04-04T11:44:41;98212.25;;;19.55;31.26
36502;BME280;25393;46.108;3.390;2023-04-04T11:47:09;98207.06;;;19.04;31.93
36502;BME280;25393;46.108;3.390;2023-04-04T11:49:40;98210.25;;;18.94;30.93
36502;BME280;25393;46.108;3.390;2023-04-04T11:52:16;98204.34;;;18.79;32.64
36502;BME280;25393;46.108;3.390;2023-04-04T11:54:47;98208.53;;;17.80;33.63
36502;BME280;25393;46.108;3.390;2023-04-04T11:57:19;98218.66;;;17.65;34.95
36502;BME280;25393;46.108;3.390;2023-04-04T11:59:47;98224.09;;;18.09;33.44
36502;BME280;25393;46.108;3.390;2023-04-04T12:02:25;98209.72;;;17.90;33.19
36502;BME280;25393;46.108;3.390;2023-04-04T12:04:55;98221.66;;;17.94;33.29
36502;BME280;25393;46.108;3.390;2023-04-04T12:07:22;98218.53;;;18.48;33.22
36502;BME280;25393;46.108;3.390;2023-04-04T12:09:50;98217.63;;;18.23;31.44
36502;BME280;25393;46.108;3.390;2023-04-04T12:12:17;98221.41;;;18.09;30.49
36502;BME280;25393;46.108;3.390;2023-04-04T12:14:43;98221.78;;;18.19;32.90
36502;BME280;25393;46.108;3.390;2023-04-04T12:17:10;98196.81;;;18.63;32.05
36502;BME280;25393;46.108;3.390;2023-04-04T12:19:38;98203.53;;;19.04;31.69
36502;BME280;25393;46.108;3.390;2023-04-04T12:22:07;98192.28;;;19.20;31.20
36502;BME280;25393;46.108;3.390;2023-04-04T12:24:35;98202.31;;;19.06;30.31
36502;BME280;25393;46.108;3.390;2023-04-04T12:27:02;98208.06;;;19.10;30.53
36502;BME280;25393;46.108;3.390;2023-04-04T12:29:30;98193.16;;;18.89;30.96
36502;BME280;25393;46.108;3.390;2023-04-04T12:32:04;98191.53;;;18.81;29.84
36502;BME280;25393;46.108;3.390;2023-04-04T12:34:33;98191.88;;;18.60;30.57
36502;BME280;25393;46.108;3.390;2023-04-04T12:37:01;98195.50;;;18.34;32.49
36502;BME280;25393;46.108;3.390;2023-04-04T12:39:30;98197.19;;;18.98;33.42
36502;BME280;25393;46.108;3.390;2023-04-04T12:41:59;98194.50;;;19.23;30.98
36502;BME280;25393;46.108;3.390;2023-04-04T12:46:59;98188.56;;;19.21;30.37
36502;BME280;25393;46.108;3.390;2023-04-04T12:49:38;98197.09;;;19.79;29.97
36502;BME280;25393;46.108;3.390;2023-04-04T12:52:19;98205.91;;;18.62;31.90
36502;BME280;25393;46.108;3.390;2023-04-04T12:54:48;98202.53;;;18.73;33.32
36502;BME280;25393;46.108;3.390;2023-04-04T12:57:34;98205.81;;;19.07;30.80
36502;BME280;25393;46.108;3.390;2023-04-04T13:00:02;98213.19;;;18.86;29.73
36502;BME280;25393;46.108;3.390;2023-04-04T13:02:29;98204.72;;;18.83;30.57
36502;BME280;25393;46.108;3.390;2023-04-04T13:04:57;98176.81;;;19.15;30.17
36502;BME280;25393;46.108;3.390;2023-04-04T13:07:29;98193.56;;;19.42;30.95
36502;BME280;25393;46.108;3.390;2023-04-04T13:10:00;98190.19;;;19.47;30.39
36502;BME280;25393;46.108;3.390;2023-04-04T13:12:53;98186.78;;;20.12;31.31
36502;BME280;25393;46.108;3.390;2023-04-04T13:15:22;98188.88;;;20.10;28.46
36502;BME280;25393;46.108;3.390;2023-04-04T13:17:49;98175.59;;;19.97;29.57
36502;BME280;25393;46.108;3.390;2023-04-04T13:20:18;98195.91;;;20.11;29.61
36502;BME280;25393;46.108;3.390;2023-04-04T13:22:46;98191.19;;;20.25;31.15
36502;BME280;25393;46.108;3.390;2023-04-04T13:25:13;98184.63;;;20.80;29.50
36502;BME280;25393;46.108;3.390;2023-04-04T13:27:42;98178.38;;;21.10;30.47
36502;BME280;25393;46.108;3.390;2023-04-04T13:30:09;98181.06;;;21.10;28.23
36502;BME280;25393;46.108;3.390;2023-04-04T13:32:37;98187.41;;;21.15;29.41
36502;BME280;25393;46.108;3.390;2023-04-04T13:35:04;98181.50;;;20.95;29.09